createdAt,value
2017-08-21T00:01:03.750Z,5.87
2017-08-21T00:03:31.352Z,5.37
2017-08-21T00:05:58.986Z,4.50
2017-08-21T00:08:26.570Z,4.10
2017-08-21T00:10:54.144Z,3.97
2017-08-21T00:13:21.687Z,5.40
2017-08-21T00:15:49.252Z,4.47
2017-08-21T00:18:16.824Z,4.83
2017-08-21T00:20:44.402Z,4.53
2017-08-21T00:23:11.938Z,4.60
2017-08-21T00:25:39.514Z,4.73
2017-08-21T00:28:07.059Z,5.03
2017-08-21T00:30:34.599Z,4.00
2017-08-21T00:33:02.165Z,4.10
2017-08-21T00:35:29.697Z,4.03
2017-08-21T00:37:57.263Z,4.40
2017-08-21T00:40:24.794Z,4.33
2017-08-21T00:42:52.361Z,5.27
2017-08-21T00:45:19.930Z,4.47
2017-08-21T00:47:47.463Z,4.57
2017-08-21T00:50:15.032Z,3.50
2017-08-21T00:52:42.847Z,4.00
2017-08-21T00:55:10.390Z,4.50
2017-08-21T00:57:37.958Z,4.90
2017-08-21T01:00:05.504Z,4.40
2017-08-21T01:02:33.073Z,4.50
2017-08-21T01:05:00.637Z,5.20
2017-08-21T01:07:28.202Z,4.90
2017-08-21T01:09:55.775Z,5.87
2017-08-21T01:12:23.310Z,5.30
2017-08-21T01:14:50.890Z,4.97
2017-08-21T01:17:18.421Z,5.03
2017-08-21T01:19:45.966Z,4.43
2017-08-21T01:22:13.547Z,4.70
2017-08-21T01:24:41.099Z,5.20
2017-08-21T01:27:08.665Z,5.10
2017-08-21T01:29:36.210Z,5.30
2017-08-21T01:32:03.795Z,5.90
2017-08-21T01:34:31.338Z,4.20
2017-08-21T01:36:58.868Z,4.80
2017-08-21T01:39:26.438Z,5.20
2017-08-21T01:41:53.983Z,4.53
2017-08-21T01:44:21.549Z,4.40
2017-08-21T01:46:49.083Z,5.30
2017-08-21T01:49:16.658Z,4.77
2017-08-21T01:51:44.194Z,4.93
2017-08-21T01:54:11.737Z,4.73
2017-08-21T01:56:39.303Z,5.77
2017-08-21T01:59:06.845Z,5.27
2017-08-21T02:01:34.416Z,5.60
2017-08-21T02:04:01.947Z,5.30
2017-08-21T02:06:29.523Z,4.83
2017-08-21T02:08:57.063Z,5.50
2017-08-21T02:14:24.785Z,5.47
2017-08-21T02:16:52.372Z,6.10
2017-08-21T02:19:19.959Z,5.57
2017-08-21T02:21:47.508Z,5.10
2017-08-21T02:24:15.050Z,5.90
2017-08-21T02:26:42.644Z,5.27
2017-08-21T02:29:10.190Z,5.67
2017-08-21T02:31:37.741Z,5.13
2017-08-21T02:34:05.321Z,6.43
2017-08-21T02:36:32.902Z,7.00
2017-08-21T02:39:00.457Z,6.17
2017-08-21T03:51:33.809Z,4.93
2017-08-21T03:54:01.345Z,5.80
2017-08-21T03:56:28.883Z,5.10
2017-08-21T03:58:56.451Z,5.60
2017-08-21T04:01:23.990Z,5.60
2017-08-21T04:03:51.566Z,5.63
2017-08-21T04:06:19.175Z,5.40
2017-08-21T04:08:46.715Z,5.30
2017-08-21T04:11:14.250Z,5.47
2017-08-21T04:13:43.629Z,5.13
2017-08-21T04:16:11.217Z,5.80
2017-08-21T04:18:39.842Z,5.50
2017-08-21T04:21:07.386Z,6.03
2017-08-21T04:23:35.014Z,5.37
2017-08-21T04:26:02.552Z,5.70
2017-08-21T04:28:30.130Z,5.20
2017-08-21T04:42:33.750Z,5.37
2017-08-21T04:45:01.336Z,6.03
2017-08-21T04:47:28.873Z,6.23
2017-08-21T04:49:56.409Z,5.80
2017-08-21T04:52:23.987Z,5.70
2017-08-21T04:54:51.526Z,5.93
2017-08-21T04:57:19.057Z,4.60
2017-08-21T04:59:46.697Z,6.60
2017-08-21T05:02:14.235Z,5.40
2017-08-21T05:04:41.817Z,6.27
2017-08-21T05:07:09.363Z,6.03
2017-08-21T05:09:36.898Z,6.03
2017-08-21T05:12:04.466Z,6.33
2017-08-21T05:14:31.997Z,5.87
2017-08-21T05:16:59.563Z,5.67
2017-08-21T05:19:27.105Z,7.93
2017-08-21T05:21:54.669Z,7.03
2017-08-21T05:24:22.199Z,5.63
2017-08-21T05:26:49.779Z,6.80
2017-08-21T05:29:17.324Z,6.37
2017-08-21T05:31:44.867Z,6.50
2017-08-21T05:34:12.433Z,5.80
2017-08-21T05:36:39.966Z,5.70
2017-08-21T05:39:07.550Z,7.10
2017-08-21T05:41:35.082Z,6.20
2017-08-21T05:44:02.619Z,7.03
2017-08-21T05:46:30.215Z,7.00
2017-08-21T05:48:57.754Z,6.00
2017-08-21T05:51:25.293Z,6.57
2017-08-21T05:53:52.865Z,6.60
2017-08-21T05:56:20.407Z,6.20
2017-08-21T05:58:47.975Z,6.73
2017-08-21T06:01:15.518Z,7.50
2017-08-21T06:03:43.083Z,7.97
2017-08-21T06:06:10.626Z,7.33
2017-08-21T06:08:38.194Z,7.57
2017-08-21T06:11:05.756Z,8.20
2017-08-21T06:13:33.327Z,7.07
2017-08-21T06:16:00.866Z,7.40
2017-08-21T06:18:28.443Z,6.60
2017-08-21T06:20:55.987Z,6.67
2017-08-21T06:23:23.531Z,7.80
2017-08-21T06:25:51.095Z,6.27
2017-08-21T06:28:18.632Z,6.60
2017-08-21T06:30:46.214Z,6.00
2017-08-21T06:33:13.753Z,7.87
2017-08-21T06:35:41.286Z,7.00
2017-08-21T06:38:08.856Z,6.90
2017-08-21T06:40:36.392Z,6.23
2017-08-21T06:43:03.955Z,7.40
2017-08-21T06:45:31.492Z,6.67
2017-08-21T06:47:59.056Z,7.07
2017-08-21T06:50:26.586Z,7.47
2017-08-21T06:52:54.162Z,6.90
2017-08-21T06:55:21.686Z,6.57
2017-08-21T06:57:49.221Z,7.00
2017-08-21T07:00:16.789Z,5.47
2017-08-21T07:02:44.323Z,5.70
2017-08-21T07:05:11.883Z,5.67
2017-08-21T07:07:39.416Z,5.47
2017-08-21T07:10:06.979Z,4.90
2017-08-21T07:12:34.506Z,5.70
2017-08-21T07:15:02.069Z,5.97
2017-08-21T07:17:29.642Z,6.30
2017-08-21T07:19:57.207Z,5.80
2017-08-21T07:22:24.776Z,5.23
2017-08-21T07:24:52.302Z,5.10
2017-08-21T07:27:19.861Z,5.00
2017-08-21T07:29:47.406Z,4.10
2017-08-21T07:32:14.970Z,4.20
2017-08-21T07:34:42.502Z,3.77
2017-08-21T07:37:10.082Z,5.10
2017-08-21T07:39:37.642Z,3.67
2017-08-21T07:42:05.177Z,4.60
2017-08-21T07:44:32.737Z,2.80
2017-08-21T07:47:00.275Z,3.80
2017-08-21T07:49:27.849Z,3.37
2017-08-21T07:51:55.385Z,3.47
2017-08-21T07:54:22.918Z,3.20
2017-08-21T07:56:50.486Z,2.50
2017-08-21T07:59:18.032Z,3.50
2017-08-21T08:01:45.601Z,3.70
2017-08-21T08:04:13.137Z,3.27
2017-08-21T08:06:40.671Z,3.40
2017-08-21T08:09:09.400Z,3.20
2017-08-21T08:11:40.389Z,4.30
2017-08-21T08:14:07.971Z,2.87
2017-08-21T08:16:35.506Z,3.00
2017-08-21T08:19:03.043Z,3.00
2017-08-21T08:21:30.613Z,2.57
2017-08-21T08:23:58.155Z,4.00
2017-08-21T08:26:26.298Z,3.10
2017-08-21T08:28:53.834Z,3.30
2017-08-21T08:31:21.417Z,3.20
2017-08-21T08:33:48.949Z,4.10
2017-08-21T08:36:16.481Z,2.80
2017-08-21T08:38:44.051Z,2.80
2017-08-21T08:41:11.621Z,3.47
2017-08-21T08:43:39.158Z,3.03
2017-08-21T08:46:06.705Z,2.80
2017-08-21T08:48:34.275Z,3.17
2017-08-21T08:51:01.819Z,3.50
2017-08-21T08:53:29.391Z,3.30
2017-08-21T08:55:56.915Z,3.03
2017-08-21T08:58:24.457Z,3.07
2017-08-21T09:00:52.022Z,2.20
2017-08-21T09:03:19.565Z,3.40
2017-08-21T09:05:47.138Z,2.73
2017-08-21T09:08:14.675Z,3.10
2017-08-21T09:10:42.206Z,3.23
2017-08-21T09:13:09.786Z,3.47
2017-08-21T09:15:37.329Z,3.10
2017-08-21T09:18:04.875Z,2.83
2017-08-21T09:20:32.435Z,2.67
2017-08-21T09:22:59.967Z,2.87
2017-08-21T09:25:27.540Z,2.80
2017-08-21T09:27:55.070Z,3.87
2017-08-21T09:30:22.638Z,3.00
2017-08-21T09:32:50.173Z,3.37
2017-08-21T09:35:17.742Z,3.73
2017-08-21T09:37:45.277Z,3.10
2017-08-21T09:40:12.846Z,3.70
2017-08-21T09:42:40.385Z,3.73
2017-08-21T09:45:07.986Z,3.47
2017-08-21T09:47:35.529Z,3.90
2017-08-21T09:50:03.065Z,3.40
2017-08-21T09:52:30.626Z,4.00
2017-08-21T09:54:58.157Z,3.63
2017-08-21T09:57:25.732Z,4.03
2017-08-21T09:59:53.278Z,4.90
2017-08-21T10:02:20.822Z,3.87
2017-08-21T10:04:48.386Z,4.07
2017-08-21T10:07:15.917Z,3.80
2017-08-21T10:09:43.486Z,3.80
2017-08-21T10:12:11.019Z,3.63
2017-08-21T10:14:38.581Z,3.50
2017-08-21T10:17:06.115Z,4.33
2017-08-21T10:19:33.691Z,3.50
2017-08-21T10:22:01.450Z,3.60
2017-08-21T10:24:29.297Z,3.40
2017-08-21T10:26:56.839Z,3.40
2017-08-21T10:29:24.406Z,4.50
2017-08-21T10:31:51.934Z,3.60
2017-08-21T10:34:19.514Z,4.37
2017-08-21T10:36:47.042Z,3.90
2017-08-21T10:39:14.575Z,3.27
2017-08-21T10:41:42.155Z,3.23
2017-08-21T10:44:09.691Z,3.97
2017-08-21T10:46:37.257Z,3.50
2017-08-21T10:49:04.786Z,3.60
2017-08-21T10:51:32.365Z,2.67
2017-08-21T10:53:59.894Z,3.80
2017-08-21T10:56:27.429Z,4.90
2017-08-21T10:58:54.997Z,4.67
2017-08-21T11:01:22.539Z,4.27
2017-08-21T11:03:50.123Z,3.70
2017-08-21T11:06:17.658Z,4.47
2017-08-21T11:08:45.190Z,4.20
2017-08-21T11:11:12.755Z,4.10
2017-08-21T11:13:40.297Z,4.67
2017-08-21T11:16:07.858Z,3.83
2017-08-21T11:18:36.122Z,4.50
2017-08-21T11:21:03.694Z,4.50
2017-08-21T11:23:31.258Z,4.20
2017-08-21T11:25:58.835Z,3.80
2017-08-21T11:28:26.822Z,4.80
2017-08-21T11:30:54.367Z,5.10
2017-08-21T11:33:21.938Z,4.70
2017-08-21T11:35:49.479Z,4.60
2017-08-21T11:38:17.018Z,5.03
2017-08-21T11:40:44.591Z,3.87
2017-08-21T11:43:12.126Z,3.43
2017-08-21T11:45:39.665Z,3.50
2017-08-21T11:48:07.225Z,3.03
2017-08-21T11:50:34.759Z,2.90
2017-08-21T11:53:02.329Z,3.70
2017-08-21T11:55:29.862Z,3.13
2017-08-21T11:57:57.433Z,3.93
2017-08-21T12:00:24.966Z,3.27
2017-08-21T12:02:52.502Z,2.77
2017-08-21T12:05:20.084Z,3.07
2017-08-21T12:07:47.649Z,2.70
2017-08-21T12:10:15.185Z,2.33
2017-08-21T12:12:42.750Z,3.13
2017-08-21T12:15:10.307Z,2.60
2017-08-21T12:17:37.873Z,2.17
2017-08-21T12:20:05.432Z,2.50
2017-08-21T12:22:32.969Z,2.50
2017-08-21T12:25:01.138Z,2.80
2017-08-21T12:27:31.114Z,3.00
2017-08-21T12:30:00.281Z,2.67
2017-08-21T12:32:29.462Z,2.67
2017-08-21T12:34:57.029Z,3.33
2017-08-21T12:37:24.607Z,2.17
2017-08-21T12:39:52.138Z,2.57
2017-08-21T12:42:19.706Z,2.03
2017-08-21T12:44:47.238Z,2.30
2017-08-21T12:47:14.806Z,3.83
2017-08-21T12:49:42.379Z,3.13
2017-08-21T12:52:09.906Z,3.10
2017-08-21T12:54:37.437Z,2.87
2017-08-21T12:57:05.005Z,3.00
2017-08-21T12:59:32.533Z,1.80
2017-08-21T13:02:00.094Z,3.07
2017-08-21T13:04:27.623Z,2.80
2017-08-21T13:06:55.217Z,2.70
2017-08-21T13:09:22.750Z,2.90
2017-08-21T13:11:50.309Z,2.50
2017-08-21T13:14:17.838Z,2.60
2017-08-21T13:16:45.404Z,2.50
2017-08-21T13:19:12.933Z,2.30
2017-08-21T13:21:40.503Z,3.00
2017-08-21T13:24:08.082Z,2.40
2017-08-21T13:26:35.610Z,2.87
2017-08-21T13:29:03.138Z,2.43
2017-08-21T13:31:30.714Z,2.57
2017-08-21T13:33:58.244Z,2.50
2017-08-21T13:36:25.818Z,2.23
2017-08-21T13:38:53.350Z,2.40
2017-08-21T13:41:20.944Z,2.77
2017-08-21T13:43:48.506Z,2.30
2017-08-21T13:46:16.096Z,2.10
2017-08-21T13:48:43.654Z,2.13
2017-08-21T13:51:11.191Z,2.20
2017-08-21T13:53:38.761Z,2.00
2017-08-21T13:56:06.344Z,2.40
2017-08-21T13:58:33.879Z,2.03
2017-08-21T14:01:01.416Z,1.63
2017-08-21T14:03:29.555Z,2.20
2017-08-21T14:05:57.235Z,1.93
2017-08-21T14:08:24.868Z,2.00
2017-08-21T14:10:53.407Z,2.27
2017-08-21T14:13:22.254Z,1.73
2017-08-21T14:15:54.287Z,2.80
2017-08-21T14:18:21.846Z,1.70
2017-08-21T14:20:49.414Z,2.40
2017-08-21T14:23:16.965Z,1.97
2017-08-21T14:25:44.537Z,2.17
2017-08-21T14:28:12.634Z,2.40
2017-08-21T14:30:40.202Z,2.13
2017-08-21T14:33:07.734Z,2.10
2017-08-21T14:35:35.300Z,2.23
2017-08-21T14:38:02.878Z,2.80
2017-08-21T14:40:30.414Z,2.70
2017-08-21T14:42:57.969Z,2.40
2017-08-21T14:45:25.507Z,3.43
2017-08-21T14:47:53.077Z,2.97
2017-08-21T14:50:20.644Z,2.87
2017-08-21T14:52:48.174Z,2.40
2017-08-21T14:55:15.746Z,2.57
2017-08-21T14:57:43.282Z,2.77
2017-08-21T15:00:10.815Z,2.10
2017-08-21T15:02:38.387Z,2.30
2017-08-21T15:05:05.917Z,2.03
2017-08-21T15:07:33.504Z,2.37
2017-08-21T15:10:01.941Z,2.70
2017-08-21T15:12:30.959Z,2.70
2017-08-21T15:14:58.531Z,1.90
2017-08-21T15:17:26.112Z,2.63
2017-08-21T15:19:53.651Z,1.90
2017-08-21T15:22:21.222Z,2.67
2017-08-21T15:24:50.283Z,2.10
2017-08-21T15:27:17.865Z,2.40
2017-08-21T15:29:45.453Z,3.37
2017-08-21T15:32:13.049Z,2.50
2017-08-21T15:34:40.622Z,1.60
2017-08-21T15:37:08.950Z,2.70
2017-08-21T15:39:36.515Z,2.07
2017-08-21T15:42:04.044Z,2.33
2017-08-21T15:44:31.831Z,2.27
2017-08-21T15:46:59.967Z,2.27
2017-08-21T15:49:44.908Z,2.17
2017-08-21T15:52:13.820Z,2.37
2017-08-21T15:54:41.689Z,2.10
2017-08-21T15:57:09.505Z,2.23
2017-08-21T15:59:37.158Z,1.77
2017-08-21T16:02:04.926Z,1.93
2017-08-21T16:04:32.814Z,1.80
2017-08-21T16:07:00.776Z,2.60
2017-08-21T16:09:28.499Z,2.60
2017-08-21T16:11:56.888Z,2.40
2017-08-21T16:14:28.451Z,1.90
2017-08-21T16:16:57.730Z,1.60
2017-08-21T16:19:26.629Z,1.77
2017-08-21T16:21:54.765Z,1.70
2017-08-21T16:24:22.527Z,1.60
2017-08-21T16:26:50.735Z,1.83
2017-08-21T16:29:19.208Z,1.50
2017-08-21T16:31:47.070Z,1.90
2017-08-21T16:34:15.718Z,1.90
2017-08-21T16:36:44.277Z,2.30
2017-08-21T16:39:13.225Z,2.53
2017-08-21T16:41:41.921Z,1.70
2017-08-21T16:44:10.358Z,2.33
2017-08-21T16:46:38.873Z,1.70
2017-08-21T16:49:07.836Z,1.50
2017-08-21T16:51:35.950Z,1.80
2017-08-21T16:54:03.620Z,1.70
2017-08-21T16:56:31.332Z,1.73
2017-08-21T16:58:58.924Z,1.40
2017-08-21T17:01:26.617Z,2.20
2017-08-21T17:03:54.469Z,1.63
2017-08-21T17:06:22.793Z,1.63
2017-08-21T17:08:50.428Z,1.80
2017-08-21T17:11:18.073Z,1.87
2017-08-21T17:13:45.704Z,2.57
2017-08-21T17:16:13.390Z,1.87
2017-08-21T17:18:41.307Z,2.03
2017-08-21T17:21:09.058Z,2.27
2017-08-21T17:23:36.804Z,1.93
2017-08-21T17:26:04.561Z,2.00
2017-08-21T17:28:32.342Z,1.93
2017-08-21T17:31:00.186Z,2.10
2017-08-21T17:33:27.960Z,2.10
2017-08-21T17:35:55.841Z,2.37
2017-08-21T17:38:24.509Z,3.17
2017-08-21T17:40:52.228Z,1.60
2017-08-21T17:43:19.998Z,2.60
2017-08-21T17:45:47.830Z,2.07
2017-08-21T17:48:16.467Z,1.50
2017-08-21T17:50:44.690Z,2.00
2017-08-21T17:53:12.356Z,2.10
2017-08-21T17:55:40.209Z,1.73
2017-08-21T17:58:08.015Z,2.20
2017-08-21T18:00:35.783Z,2.03
2017-08-21T18:03:05.163Z,2.27
2017-08-21T18:05:33.499Z,2.37
2017-08-21T18:08:01.268Z,2.30
2017-08-21T18:10:29.205Z,2.20
2017-08-21T18:12:57.874Z,2.20
2017-08-21T18:15:25.640Z,2.50
2017-08-21T18:17:53.332Z,4.70
2017-08-21T18:20:21.174Z,4.30
2017-08-21T18:22:48.956Z,3.90
2017-08-21T18:25:16.733Z,3.43
2017-08-21T18:27:44.910Z,2.90
2017-08-21T18:30:12.718Z,2.63
2017-08-21T18:32:40.483Z,2.27
2017-08-21T18:35:08.313Z,2.03
2017-08-21T18:37:36.866Z,2.30
2017-08-21T18:40:04.785Z,1.63
2017-08-21T18:42:32.327Z,2.20
2017-08-21T18:45:00.162Z,5.30
2017-08-21T18:47:27.738Z,4.40
2017-08-21T18:49:55.276Z,2.37
2017-08-21T18:52:22.857Z,1.97
2017-08-21T18:54:50.391Z,2.00
2017-08-21T18:57:17.926Z,1.83
2017-08-21T18:59:45.494Z,2.07
2017-08-21T19:02:13.191Z,1.83
2017-08-21T19:04:40.751Z,2.03
2017-08-21T19:07:08.322Z,1.60
2017-08-21T19:09:35.911Z,2.07
2017-08-21T19:12:03.445Z,2.00
2017-08-21T19:15:03.134Z,2.30
2017-08-21T19:17:31.570Z,2.50
2017-08-21T19:19:59.156Z,2.80
2017-08-21T19:22:26.699Z,4.23
2017-08-21T19:24:54.247Z,5.97
2017-08-21T19:27:21.813Z,2.63
2017-08-21T19:29:49.345Z,2.50
2017-08-21T19:32:16.921Z,2.20
2017-08-21T19:34:44.463Z,3.00
2017-08-21T19:37:12.039Z,3.87
2017-08-21T19:39:39.598Z,3.80
2017-08-21T19:42:07.141Z,3.90
2017-08-21T19:44:34.743Z,3.47
2017-08-21T19:47:02.283Z,3.70
2017-08-21T19:49:29.821Z,2.57
2017-08-21T19:51:59.111Z,2.97
2017-08-21T19:54:26.668Z,2.93
2017-08-21T19:56:54.921Z,2.90
2017-08-21T19:59:22.689Z,2.90
2017-08-21T20:01:50.250Z,2.40
2017-08-21T20:04:18.679Z,2.70
2017-08-21T20:06:46.219Z,2.43
2017-08-21T20:09:13.797Z,2.70
2017-08-21T20:11:41.370Z,2.63
2017-08-21T20:14:08.920Z,2.60
2017-08-21T20:16:37.023Z,3.00
2017-08-21T20:19:04.562Z,3.43
2017-08-21T20:21:32.111Z,2.90
2017-08-21T20:23:59.711Z,2.50
2017-08-21T20:26:27.246Z,2.73
2017-08-21T20:28:54.787Z,3.33
2017-08-21T20:31:22.404Z,3.03
2017-08-21T20:33:49.945Z,3.20
2017-08-21T20:36:17.545Z,3.60
2017-08-21T20:38:45.121Z,3.00
2017-08-21T20:41:12.658Z,3.10
2017-08-21T20:43:40.258Z,3.47
2017-08-21T20:46:07.824Z,2.90
2017-08-21T20:48:35.359Z,3.20
2017-08-21T20:51:02.940Z,2.60
2017-08-21T20:53:30.472Z,2.90
2017-08-21T20:55:58.007Z,3.60
2017-08-21T20:58:25.927Z,3.20
2017-08-21T21:00:53.469Z,3.50
2017-08-21T21:03:21.033Z,3.33
2017-08-21T21:05:48.575Z,2.93
2017-08-21T21:08:16.147Z,3.60
2017-08-21T21:10:43.688Z,3.40
2017-08-21T21:13:11.262Z,3.17
2017-08-21T21:15:38.834Z,3.70
2017-08-21T21:18:06.375Z,3.47
2017-08-21T21:20:33.957Z,3.27
2017-08-21T21:23:01.493Z,3.50
2017-08-21T21:25:29.274Z,3.80
2017-08-21T21:27:57.717Z,4.33
2017-08-21T21:30:25.263Z,4.17
2017-08-21T21:32:52.847Z,3.17
2017-08-21T21:35:20.386Z,3.03
2017-08-21T21:37:47.922Z,3.43
2017-08-21T21:40:15.496Z,4.00
2017-08-21T21:42:43.672Z,3.90
2017-08-21T21:45:11.244Z,3.50
2017-08-21T21:47:39.566Z,3.80
2017-08-21T21:50:07.123Z,3.67
2017-08-21T21:52:34.695Z,3.70
2017-08-21T21:55:02.245Z,4.03
2017-08-21T21:57:29.822Z,5.40
2017-08-21T21:59:57.370Z,5.57
2017-08-21T22:02:24.952Z,7.67
2017-08-21T22:04:52.530Z,6.70
2017-08-21T22:07:21.009Z,5.93
2017-08-21T22:09:48.642Z,5.23
2017-08-21T22:12:16.182Z,7.10
2017-08-21T22:14:43.901Z,6.50
2017-08-21T22:17:11.503Z,6.03
2017-08-21T22:19:39.034Z,5.20
2017-08-21T22:22:06.671Z,7.30
2017-08-21T22:24:34.222Z,5.70
2017-08-21T22:27:01.806Z,5.40
2017-08-21T22:29:29.359Z,6.90
2017-08-21T22:31:56.899Z,6.30
2017-08-21T22:34:24.474Z,5.57
2017-08-21T22:36:52.012Z,5.93
2017-08-21T22:39:19.594Z,5.13
2017-08-21T22:41:47.135Z,5.00
2017-08-21T22:44:14.672Z,4.87
2017-08-21T22:46:42.234Z,4.70
2017-08-21T22:49:09.770Z,4.37
2017-08-21T22:51:37.334Z,5.83
2017-08-21T22:54:04.875Z,4.57
2017-08-21T22:56:32.453Z,4.87
2017-08-21T22:58:59.991Z,5.17
2017-08-21T23:01:27.526Z,4.70
2017-08-21T23:03:55.090Z,6.27
2017-08-21T23:06:22.630Z,5.53
2017-08-21T23:08:50.198Z,6.20
2017-08-21T23:11:17.774Z,5.73
2017-08-21T23:13:45.342Z,6.07
2017-08-21T23:16:12.919Z,5.80
2017-08-21T23:18:40.458Z,5.70
2017-08-21T23:21:08.001Z,6.00
2017-08-21T23:23:35.583Z,5.40
2017-08-21T23:26:03.113Z,5.10
2017-08-21T23:28:30.650Z,6.17
2017-08-21T23:30:58.226Z,6.00
2017-08-21T23:33:25.759Z,7.10
2017-08-21T23:35:53.371Z,6.07
2017-08-21T23:38:20.907Z,5.80
2017-08-21T23:40:48.452Z,5.90
2017-08-21T23:43:16.031Z,6.10
2017-08-21T23:45:43.568Z,5.00
2017-08-21T23:48:11.142Z,5.07
2017-08-21T23:50:38.690Z,5.33
2017-08-21T23:53:06.275Z,5.20
2017-08-21T23:55:33.814Z,5.43
2017-08-21T23:58:01.707Z,6.00
